KCCB

Cable Airport

Upland, California, USA
METAR KCCB 180235Z AUTO 00000KT 10SM CLR 15/M06 A3000 RMK AO2
Observed Flight Rules
Dec-18 @ 02:35 UTC (24 minutes ago) Visual Flight Rules
Wind Visibility Clouds
Calm 10 miles
  • Clear skies
Temperatures Readings
Current 15°C / 59°F
Dewpoint -6°C / 21°F
Humidity 23%
Altimeter 30" Hg
Pressure 1016 hPa
METAR KCCB 180235Z AUTO 00000KT 10SM CLR 15/M06 A3000 RMK AO2
Observed Flight Rules
Dec-18 @ 02:35 UTC
(24 minutes ago)
VFR
Wind Visibility
Calm 10 miles
Clouds
  • Clear skies
Temperature Dewpoint
15°C / 59°F -6°C / 21°F
Humidity Altimeter Pressure
23% 30" Hg 1016 hPa